sensor_id;sensor_type;location;lat;lon;timestamp;P1;durP1;ratioP1;P2;durP2;ratioP2
80332;SDS011;69652;51.864;-2.246;2023-05-07T00:00:23;70.30;;;41.75;;
80332;SDS011;69652;51.864;-2.246;2023-05-07T00:02:49;34.10;;;17.88;;
80332;SDS011;69652;51.864;-2.246;2023-05-07T00:05:14;45.50;;;25.15;;
80332;SDS011;69652;51.864;-2.246;2023-05-07T00:07:40;44.33;;;26.88;;
80332;SDS011;69652;51.864;-2.246;2023-05-07T00:10:06;84.03;;;42.53;;
80332;SDS011;69652;51.864;-2.246;2023-05-07T00:12:32;62.10;;;30.52;;
80332;SDS011;69652;51.864;-2.246;2023-05-07T00:14:59;86.50;;;47.33;;
80332;SDS011;69652;51.864;-2.246;2023-05-07T00:17:25;54.35;;;26.98;;
80332;SDS011;69652;51.864;-2.246;2023-05-07T00:19:51;55.50;;;31.05;;
80332;SDS011;69652;51.864;-2.246;2023-05-07T00:22:17;43.78;;;25.17;;
80332;SDS011;69652;51.864;-2.246;2023-05-07T00:24:42;44.45;;;24.10;;
80332;SDS011;69652;51.864;-2.246;2023-05-07T00:27:08;34.75;;;18.55;;
80332;SDS011;69652;51.864;-2.246;2023-05-07T00:29:33;47.10;;;27.50;;
80332;SDS011;69652;51.864;-2.246;2023-05-07T00:31:59;88.20;;;47.15;;
80332;SDS011;69652;51.864;-2.246;2023-05-07T00:34:24;45.42;;;21.52;;
80332;SDS011;69652;51.864;-2.246;2023-05-07T00:36:50;64.57;;;33.15;;
80332;SDS011;69652;51.864;-2.246;2023-05-07T00:39:15;52.78;;;27.05;;
80332;SDS011;69652;51.864;-2.246;2023-05-07T00:41:41;58.17;;;31.73;;
80332;SDS011;69652;51.864;-2.246;2023-05-07T00:44:06;53.15;;;28.23;;
80332;SDS011;69652;51.864;-2.246;2023-05-07T00:46:32;50.97;;;25.80;;
80332;SDS011;69652;51.864;-2.246;2023-05-07T00:48:58;63.55;;;33.00;;
80332;SDS011;69652;51.864;-2.246;2023-05-07T00:51:25;83.20;;;45.30;;
80332;SDS011;69652;51.864;-2.246;2023-05-07T00:53:52;55.85;;;29.83;;
80332;SDS011;69652;51.864;-2.246;2023-05-07T00:56:20;59.97;;;26.42;;
80332;SDS011;69652;51.864;-2.246;2023-05-07T00:58:47;56.05;;;28.95;;
80332;SDS011;69652;51.864;-2.246;2023-05-07T01:01:13;45.20;;;21.48;;
80332;SDS011;69652;51.864;-2.246;2023-05-07T01:03:40;66.50;;;33.47;;
80332;SDS011;69652;51.864;-2.246;2023-05-07T01:06:06;69.50;;;33.15;;
80332;SDS011;69652;51.864;-2.246;2023-05-07T01:08:33;62.15;;;29.77;;
80332;SDS011;69652;51.864;-2.246;2023-05-07T01:11:00;67.40;;;35.78;;
80332;SDS011;69652;51.864;-2.246;2023-05-07T01:13:27;44.17;;;20.38;;
80332;SDS011;69652;51.864;-2.246;2023-05-07T01:15:52;46.47;;;23.33;;
80332;SDS011;69652;51.864;-2.246;2023-05-07T01:18:18;48.88;;;23.85;;
80332;SDS011;69652;51.864;-2.246;2023-05-07T01:20:44;66.10;;;19.15;;
80332;SDS011;69652;51.864;-2.246;2023-05-07T01:23:10;43.63;;;22.58;;
80332;SDS011;69652;51.864;-2.246;2023-05-07T01:25:36;99.47;;;49.00;;
80332;SDS011;69652;51.864;-2.246;2023-05-07T01:28:02;112.38;;;59.55;;
80332;SDS011;69652;51.864;-2.246;2023-05-07T01:30:28;74.07;;;39.95;;
80332;SDS011;69652;51.864;-2.246;2023-05-07T01:33:13;67.07;;;41.47;;
80332;SDS011;69652;51.864;-2.246;2023-05-07T01:35:45;70.93;;;21.73;;
80332;SDS011;69652;51.864;-2.246;2023-05-07T01:38:13;72.82;;;34.38;;
80332;SDS011;69652;51.864;-2.246;2023-05-07T01:40:39;45.88;;;25.70;;
80332;SDS011;69652;51.864;-2.246;2023-05-07T01:43:05;41.15;;;19.05;;
80332;SDS011;69652;51.864;-2.246;2023-05-07T01:45:31;44.22;;;23.25;;
80332;SDS011;69652;51.864;-2.246;2023-05-07T01:47:59;42.70;;;17.67;;
80332;SDS011;69652;51.864;-2.246;2023-05-07T01:50:25;45.60;;;19.67;;
80332;SDS011;69652;51.864;-2.246;2023-05-07T01:52:51;33.03;;;16.98;;
80332;SDS011;69652;51.864;-2.246;2023-05-07T01:55:17;39.20;;;14.88;;
80332;SDS011;69652;51.864;-2.246;2023-05-07T01:57:42;31.33;;;13.05;;
80332;SDS011;69652;51.864;-2.246;2023-05-07T02:00:08;26.98;;;11.82;;
80332;SDS011;69652;51.864;-2.246;2023-05-07T02:02:34;54.30;;;30.17;;
80332;SDS011;69652;51.864;-2.246;2023-05-07T02:05:00;37.67;;;21.52;;
80332;SDS011;69652;51.864;-2.246;2023-05-07T02:07:26;43.42;;;24.27;;
80332;SDS011;69652;51.864;-2.246;2023-05-07T02:09:52;49.58;;;25.08;;
80332;SDS011;69652;51.864;-2.246;2023-05-07T02:12:18;52.75;;;26.08;;
80332;SDS011;69652;51.864;-2.246;2023-05-07T02:14:43;57.85;;;29.15;;
80332;SDS011;69652;51.864;-2.246;2023-05-07T02:17:08;51.22;;;24.83;;
80332;SDS011;69652;51.864;-2.246;2023-05-07T02:19:34;48.67;;;22.42;;
80332;SDS011;69652;51.864;-2.246;2023-05-07T02:22:00;36.85;;;16.85;;
80332;SDS011;69652;51.864;-2.246;2023-05-07T02:24:25;34.88;;;15.13;;
80332;SDS011;69652;51.864;-2.246;2023-05-07T02:26:51;31.42;;;15.15;;
80332;SDS011;69652;51.864;-2.246;2023-05-07T02:29:16;27.80;;;13.95;;
80332;SDS011;69652;51.864;-2.246;2023-05-07T02:31:41;27.58;;;13.10;;
80332;SDS011;69652;51.864;-2.246;2023-05-07T02:34:07;41.20;;;20.80;;
80332;SDS011;69652;51.864;-2.246;2023-05-07T02:36:32;40.85;;;16.13;;
80332;SDS011;69652;51.864;-2.246;2023-05-07T02:38:58;27.98;;;14.82;;
80332;SDS011;69652;51.864;-2.246;2023-05-07T02:41:23;35.80;;;18.15;;
80332;SDS011;69652;51.864;-2.246;2023-05-07T02:43:49;28.65;;;13.40;;
80332;SDS011;69652;51.864;-2.246;2023-05-07T02:46:14;29.38;;;13.35;;
80332;SDS011;69652;51.864;-2.246;2023-05-07T02:48:40;27.02;;;12.85;;
80332;SDS011;69652;51.864;-2.246;2023-05-07T02:51:06;30.75;;;13.10;;
80332;SDS011;69652;51.864;-2.246;2023-05-07T02:53:31;25.30;;;10.68;;
80332;SDS011;69652;51.864;-2.246;2023-05-07T02:55:58;23.95;;;10.57;;
80332;SDS011;69652;51.864;-2.246;2023-05-07T02:58:24;20.13;;;9.25;;
80332;SDS011;69652;51.864;-2.246;2023-05-07T03:00:50;29.33;;;11.95;;
80332;SDS011;69652;51.864;-2.246;2023-05-07T03:03:16;34.00;;;16.13;;
80332;SDS011;69652;51.864;-2.246;2023-05-07T03:05:42;23.02;;;11.35;;
80332;SDS011;69652;51.864;-2.246;2023-05-07T03:08:08;20.33;;;9.55;;
80332;SDS011;69652;51.864;-2.246;2023-05-07T03:10:34;24.30;;;9.98;;
80332;SDS011;69652;51.864;-2.246;2023-05-07T03:13:00;15.88;;;8.15;;
80332;SDS011;69652;51.864;-2.246;2023-05-07T03:15:26;22.35;;;10.07;;
80332;SDS011;69652;51.864;-2.246;2023-05-07T03:17:51;21.48;;;10.00;;
80332;SDS011;69652;51.864;-2.246;2023-05-07T03:20:17;24.58;;;10.43;;
80332;SDS011;69652;51.864;-2.246;2023-05-07T03:22:42;18.27;;;8.38;;
80332;SDS011;69652;51.864;-2.246;2023-05-07T03:25:08;17.52;;;8.40;;
80332;SDS011;69652;51.864;-2.246;2023-05-07T03:27:34;25.35;;;9.68;;
80332;SDS011;69652;51.864;-2.246;2023-05-07T03:29:59;23.38;;;10.82;;
80332;SDS011;69652;51.864;-2.246;2023-05-07T03:32:25;25.08;;;10.00;;
80332;SDS011;69652;51.864;-2.246;2023-05-07T03:34:50;17.02;;;8.98;;
80332;SDS011;69652;51.864;-2.246;2023-05-07T03:37:16;19.27;;;9.52;;
80332;SDS011;69652;51.864;-2.246;2023-05-07T03:39:41;25.60;;;10.57;;
80332;SDS011;69652;51.864;-2.246;2023-05-07T03:42:07;24.90;;;10.85;;
80332;SDS011;69652;51.864;-2.246;2023-05-07T03:44:32;20.38;;;8.85;;
80332;SDS011;69652;51.864;-2.246;2023-05-07T03:46:58;29.35;;;10.98;;
80332;SDS011;69652;51.864;-2.246;2023-05-07T03:49:23;24.45;;;9.48;;
80332;SDS011;69652;51.864;-2.246;2023-05-07T03:51:49;19.42;;;9.35;;
80332;SDS011;69652;51.864;-2.246;2023-05-07T03:54:14;23.20;;;10.02;;
80332;SDS011;69652;51.864;-2.246;2023-05-07T03:56:40;21.02;;;9.23;;
80332;SDS011;69652;51.864;-2.246;2023-05-07T03:59:05;31.27;;;10.73;;
80332;SDS011;69652;51.864;-2.246;2023-05-07T04:01:31;22.92;;;9.57;;
80332;SDS011;69652;51.864;-2.246;2023-05-07T04:03:56;29.88;;;11.40;;
80332;SDS011;69652;51.864;-2.246;2023-05-07T04:06:22;30.98;;;13.45;;
80332;SDS011;69652;51.864;-2.246;2023-05-07T04:08:47;24.33;;;11.15;;
80332;SDS011;69652;51.864;-2.246;2023-05-07T04:11:13;32.20;;;11.18;;
80332;SDS011;69652;51.864;-2.246;2023-05-07T04:13:38;33.80;;;12.13;;
80332;SDS011;69652;51.864;-2.246;2023-05-07T04:16:04;16.67;;;8.15;;
80332;SDS011;69652;51.864;-2.246;2023-05-07T04:18:30;19.17;;;8.55;;
80332;SDS011;69652;51.864;-2.246;2023-05-07T04:20:55;17.48;;;8.77;;
80332;SDS011;69652;51.864;-2.246;2023-05-07T04:23:21;15.98;;;7.25;;
80332;SDS011;69652;51.864;-2.246;2023-05-07T04:25:46;17.23;;;7.70;;
80332;SDS011;69652;51.864;-2.246;2023-05-07T04:28:12;19.00;;;8.27;;
80332;SDS011;69652;51.864;-2.246;2023-05-07T04:30:38;18.48;;;8.38;;
80332;SDS011;69652;51.864;-2.246;2023-05-07T04:33:03;19.23;;;8.50;;
80332;SDS011;69652;51.864;-2.246;2023-05-07T04:35:29;20.38;;;7.75;;
80332;SDS011;69652;51.864;-2.246;2023-05-07T04:37:55;13.68;;;6.93;;
80332;SDS011;69652;51.864;-2.246;2023-05-07T04:40:20;18.27;;;6.72;;
80332;SDS011;69652;51.864;-2.246;2023-05-07T04:42:45;11.00;;;5.55;;
80332;SDS011;69652;51.864;-2.246;2023-05-07T04:45:11;11.05;;;5.70;;
80332;SDS011;69652;51.864;-2.246;2023-05-07T04:47:37;11.70;;;6.10;;
80332;SDS011;69652;51.864;-2.246;2023-05-07T04:50:03;17.40;;;7.50;;
80332;SDS011;69652;51.864;-2.246;2023-05-07T04:52:30;16.50;;;7.20;;
80332;SDS011;69652;51.864;-2.246;2023-05-07T04:54:56;12.35;;;6.28;;
80332;SDS011;69652;51.864;-2.246;2023-05-07T04:57:21;11.60;;;5.93;;
80332;SDS011;69652;51.864;-2.246;2023-05-07T04:59:47;12.48;;;5.93;;
80332;SDS011;69652;51.864;-2.246;2023-05-07T05:02:12;11.32;;;5.13;;
80332;SDS011;69652;51.864;-2.246;2023-05-07T05:04:38;12.80;;;4.93;;
80332;SDS011;69652;51.864;-2.246;2023-05-07T05:07:03;12.30;;;6.18;;
80332;SDS011;69652;51.864;-2.246;2023-05-07T05:09:29;9.68;;;3.78;;
80332;SDS011;69652;51.864;-2.246;2023-05-07T05:11:55;9.75;;;4.03;;
80332;SDS011;69652;51.864;-2.246;2023-05-07T05:14:20;9.77;;;3.88;;
80332;SDS011;69652;51.864;-2.246;2023-05-07T05:16:46;10.90;;;5.45;;
80332;SDS011;69652;51.864;-2.246;2023-05-07T05:19:11;8.40;;;4.72;;
80332;SDS011;69652;51.864;-2.246;2023-05-07T05:21:37;11.70;;;5.22;;
80332;SDS011;69652;51.864;-2.246;2023-05-07T05:24:02;10.82;;;6.57;;
80332;SDS011;69652;51.864;-2.246;2023-05-07T05:26:28;10.82;;;3.88;;
80332;SDS011;69652;51.864;-2.246;2023-05-07T05:28:53;9.25;;;3.92;;
80332;SDS011;69652;51.864;-2.246;2023-05-07T05:31:19;9.93;;;4.60;;
80332;SDS011;69652;51.864;-2.246;2023-05-07T05:33:44;6.97;;;3.05;;
80332;SDS011;69652;51.864;-2.246;2023-05-07T05:36:10;11.55;;;3.80;;
80332;SDS011;69652;51.864;-2.246;2023-05-07T05:38:36;12.57;;;4.00;;
80332;SDS011;69652;51.864;-2.246;2023-05-07T05:41:02;8.50;;;3.45;;
80332;SDS011;69652;51.864;-2.246;2023-05-07T05:43:28;10.63;;;3.85;;
80332;SDS011;69652;51.864;-2.246;2023-05-07T05:45:55;8.85;;;3.55;;
80332;SDS011;69652;51.864;-2.246;2023-05-07T05:48:20;8.95;;;3.40;;
80332;SDS011;69652;51.864;-2.246;2023-05-07T05:50:46;10.02;;;3.38;;
80332;SDS011;69652;51.864;-2.246;2023-05-07T05:53:11;9.50;;;3.78;;
80332;SDS011;69652;51.864;-2.246;2023-05-07T05:55:37;4.95;;;2.60;;
80332;SDS011;69652;51.864;-2.246;2023-05-07T05:58:02;5.45;;;2.50;;
80332;SDS011;69652;51.864;-2.246;2023-05-07T06:00:28;5.85;;;2.70;;
80332;SDS011;69652;51.864;-2.246;2023-05-07T06:02:54;6.30;;;2.85;;
80332;SDS011;69652;51.864;-2.246;2023-05-07T06:05:19;9.82;;;3.22;;
80332;SDS011;69652;51.864;-2.246;2023-05-07T06:07:45;8.52;;;3.28;;
80332;SDS011;69652;51.864;-2.246;2023-05-07T06:10:10;9.90;;;4.15;;
80332;SDS011;69652;51.864;-2.246;2023-05-07T06:12:36;8.73;;;3.00;;
80332;SDS011;69652;51.864;-2.246;2023-05-07T06:15:01;8.73;;;3.45;;
80332;SDS011;69652;51.864;-2.246;2023-05-07T06:17:27;5.93;;;3.05;;
80332;SDS011;69652;51.864;-2.246;2023-05-07T06:19:53;5.82;;;2.67;;
80332;SDS011;69652;51.864;-2.246;2023-05-07T06:22:18;10.93;;;3.72;;
80332;SDS011;69652;51.864;-2.246;2023-05-07T06:24:44;8.35;;;3.58;;
80332;SDS011;69652;51.864;-2.246;2023-05-07T06:27:09;10.63;;;3.63;;
80332;SDS011;69652;51.864;-2.246;2023-05-07T06:29:35;8.50;;;3.53;;
80332;SDS011;69652;51.864;-2.246;2023-05-07T06:32:07;8.45;;;3.40;;
80332;SDS011;69652;51.864;-2.246;2023-05-07T06:34:33;10.63;;;3.35;;
80332;SDS011;69652;51.864;-2.246;2023-05-07T06:36:58;8.57;;;3.67;;
80332;SDS011;69652;51.864;-2.246;2023-05-07T06:39:23;8.10;;;3.10;;
80332;SDS011;69652;51.864;-2.246;2023-05-07T06:41:49;6.60;;;2.90;;
80332;SDS011;69652;51.864;-2.246;2023-05-07T06:44:14;11.75;;;3.10;;
80332;SDS011;69652;51.864;-2.246;2023-05-07T06:46:40;10.05;;;3.28;;
80332;SDS011;69652;51.864;-2.246;2023-05-07T06:49:06;8.13;;;3.40;;
80332;SDS011;69652;51.864;-2.246;2023-05-07T06:51:31;8.07;;;3.70;;
80332;SDS011;69652;51.864;-2.246;2023-05-07T06:53:57;8.05;;;4.03;;
80332;SDS011;69652;51.864;-2.246;2023-05-07T06:56:22;9.55;;;2.72;;
80332;SDS011;69652;51.864;-2.246;2023-05-07T06:58:48;9.90;;;3.33;;
80332;SDS011;69652;51.864;-2.246;2023-05-07T07:01:13;6.78;;;3.30;;
80332;SDS011;69652;51.864;-2.246;2023-05-07T07:03:40;7.20;;;3.00;;
80332;SDS011;69652;51.864;-2.246;2023-05-07T07:06:05;5.65;;;3.03;;
80332;SDS011;69652;51.864;-2.246;2023-05-07T07:08:31;8.35;;;2.83;;
80332;SDS011;69652;51.864;-2.246;2023-05-07T07:10:57;10.48;;;3.50;;
80332;SDS011;69652;51.864;-2.246;2023-05-07T07:13:23;10.95;;;3.38;;
80332;SDS011;69652;51.864;-2.246;2023-05-07T07:15:48;10.45;;;3.33;;
80332;SDS011;69652;51.864;-2.246;2023-05-07T07:18:14;8.57;;;2.90;;
80332;SDS011;69652;51.864;-2.246;2023-05-07T07:20:40;8.65;;;2.80;;
80332;SDS011;69652;51.864;-2.246;2023-05-07T07:23:05;6.32;;;3.03;;
80332;SDS011;69652;51.864;-2.246;2023-05-07T07:25:31;4.65;;;1.90;;
80332;SDS011;69652;51.864;-2.246;2023-05-07T07:27:56;9.38;;;3.50;;
80332;SDS011;69652;51.864;-2.246;2023-05-07T07:30:22;9.20;;;3.40;;
80332;SDS011;69652;51.864;-2.246;2023-05-07T07:32:47;7.82;;;3.38;;
80332;SDS011;69652;51.864;-2.246;2023-05-07T07:35:13;5.65;;;2.20;;
80332;SDS011;69652;51.864;-2.246;2023-05-07T07:37:38;7.13;;;2.30;;
80332;SDS011;69652;51.864;-2.246;2023-05-07T07:40:04;13.55;;;7.03;;
80332;SDS011;69652;51.864;-2.246;2023-05-07T07:42:30;8.68;;;3.42;;
80332;SDS011;69652;51.864;-2.246;2023-05-07T07:44:55;7.07;;;2.75;;
80332;SDS011;69652;51.864;-2.246;2023-05-07T07:47:22;5.82;;;2.30;;
80332;SDS011;69652;51.864;-2.246;2023-05-07T07:49:47;10.10;;;2.75;;
80332;SDS011;69652;51.864;-2.246;2023-05-07T07:52:13;6.60;;;2.20;;
80332;SDS011;69652;51.864;-2.246;2023-05-07T07:54:38;7.82;;;2.90;;
80332;SDS011;69652;51.864;-2.246;2023-05-07T07:57:04;7.50;;;2.92;;
80332;SDS011;69652;51.864;-2.246;2023-05-07T07:59:30;9.02;;;2.78;;
80332;SDS011;69652;51.864;-2.246;2023-05-07T08:01:56;7.60;;;2.72;;
80332;SDS011;69652;51.864;-2.246;2023-05-07T08:04:22;6.95;;;2.33;;
80332;SDS011;69652;51.864;-2.246;2023-05-07T08:06:48;4.25;;;2.15;;
80332;SDS011;69652;51.864;-2.246;2023-05-07T08:09:13;6.22;;;2.70;;
80332;SDS011;69652;51.864;-2.246;2023-05-07T08:11:39;11.07;;;3.30;;
80332;SDS011;69652;51.864;-2.246;2023-05-07T08:14:05;8.07;;;2.72;;
80332;SDS011;69652;51.864;-2.246;2023-05-07T08:16:30;7.18;;;2.30;;
80332;SDS011;69652;51.864;-2.246;2023-05-07T08:18:56;5.25;;;1.80;;
80332;SDS011;69652;51.864;-2.246;2023-05-07T08:21:22;3.83;;;2.13;;
80332;SDS011;69652;51.864;-2.246;2023-05-07T08:23:47;6.35;;;2.33;;
80332;SDS011;69652;51.864;-2.246;2023-05-07T08:26:13;7.50;;;2.45;;
80332;SDS011;69652;51.864;-2.246;2023-05-07T08:28:38;7.88;;;2.65;;
80332;SDS011;69652;51.864;-2.246;2023-05-07T08:31:04;12.35;;;4.07;;
80332;SDS011;69652;51.864;-2.246;2023-05-07T08:33:30;9.27;;;3.38;;
80332;SDS011;69652;51.864;-2.246;2023-05-07T08:35:56;7.05;;;2.33;;
80332;SDS011;69652;51.864;-2.246;2023-05-07T08:38:22;8.80;;;2.85;;
80332;SDS011;69652;51.864;-2.246;2023-05-07T08:40:47;6.43;;;2.20;;
80332;SDS011;69652;51.864;-2.246;2023-05-07T08:43:13;7.47;;;2.50;;
80332;SDS011;69652;51.864;-2.246;2023-05-07T08:45:40;9.98;;;4.25;;
80332;SDS011;69652;51.864;-2.246;2023-05-07T08:48:12;7.15;;;2.90;;
80332;SDS011;69652;51.864;-2.246;2023-05-07T08:50:40;11.18;;;2.80;;
80332;SDS011;69652;51.864;-2.246;2023-05-07T08:53:06;7.57;;;3.17;;
80332;SDS011;69652;51.864;-2.246;2023-05-07T08:55:31;7.35;;;2.80;;
80332;SDS011;69652;51.864;-2.246;2023-05-07T08:57:58;4.28;;;1.77;;
80332;SDS011;69652;51.864;-2.246;2023-05-07T09:00:24;6.78;;;2.60;;
80332;SDS011;69652;51.864;-2.246;2023-05-07T09:02:49;8.88;;;2.67;;
80332;SDS011;69652;51.864;-2.246;2023-05-07T09:05:15;8.60;;;2.55;;
80332;SDS011;69652;51.864;-2.246;2023-05-07T09:07:40;10.75;;;3.53;;
80332;SDS011;69652;51.864;-2.246;2023-05-07T09:10:06;5.25;;;1.90;;
80332;SDS011;69652;51.864;-2.246;2023-05-07T09:12:32;7.43;;;2.80;;
80332;SDS011;69652;51.864;-2.246;2023-05-07T09:15:00;6.50;;;2.63;;
80332;SDS011;69652;51.864;-2.246;2023-05-07T09:17:26;8.27;;;2.78;;
80332;SDS011;69652;51.864;-2.246;2023-05-07T09:19:51;8.45;;;2.58;;
80332;SDS011;69652;51.864;-2.246;2023-05-07T09:22:18;6.13;;;2.40;;
80332;SDS011;69652;51.864;-2.246;2023-05-07T09:24:47;6.20;;;1.98;;
80332;SDS011;69652;51.864;-2.246;2023-05-07T09:27:14;5.75;;;2.70;;
80332;SDS011;69652;51.864;-2.246;2023-05-07T09:29:39;8.07;;;2.97;;
80332;SDS011;69652;51.864;-2.246;2023-05-07T09:32:05;5.57;;;2.60;;
80332;SDS011;69652;51.864;-2.246;2023-05-07T09:34:31;8.88;;;3.13;;
80332;SDS011;69652;51.864;-2.246;2023-05-07T09:37:01;9.00;;;3.17;;
80332;SDS011;69652;51.864;-2.246;2023-05-07T09:39:38;9.52;;;3.25;;
80332;SDS011;69652;51.864;-2.246;2023-05-07T09:42:07;7.30;;;2.70;;
80332;SDS011;69652;51.864;-2.246;2023-05-07T09:44:34;7.10;;;3.10;;
80332;SDS011;69652;51.864;-2.246;2023-05-07T09:47:00;8.77;;;2.78;;
80332;SDS011;69652;51.864;-2.246;2023-05-07T09:49:29;7.57;;;3.05;;
80332;SDS011;69652;51.864;-2.246;2023-05-07T09:51:57;7.68;;;2.80;;
80332;SDS011;69652;51.864;-2.246;2023-05-07T09:54:24;6.25;;;2.90;;
80332;SDS011;69652;51.864;-2.246;2023-05-07T09:56:51;6.28;;;2.20;;
80332;SDS011;69652;51.864;-2.246;2023-05-07T09:59:17;6.95;;;2.60;;
80332;SDS011;69652;51.864;-2.246;2023-05-07T10:01:45;6.80;;;2.35;;
80332;SDS011;69652;51.864;-2.246;2023-05-07T10:04:11;6.78;;;2.47;;
80332;SDS011;69652;51.864;-2.246;2023-05-07T10:06:37;6.70;;;2.58;;
80332;SDS011;69652;51.864;-2.246;2023-05-07T10:09:03;6.85;;;2.30;;
80332;SDS011;69652;51.864;-2.246;2023-05-07T10:11:32;5.75;;;2.20;;
80332;SDS011;69652;51.864;-2.246;2023-05-07T10:14:04;7.68;;;2.58;;
80332;SDS011;69652;51.864;-2.246;2023-05-07T10:16:33;5.68;;;2.40;;
80332;SDS011;69652;51.864;-2.246;2023-05-07T10:19:04;6.63;;;2.15;;
80332;SDS011;69652;51.864;-2.246;2023-05-07T10:21:31;5.70;;;2.35;;
80332;SDS011;69652;51.864;-2.246;2023-05-07T10:24:05;5.70;;;1.83;;
80332;SDS011;69652;51.864;-2.246;2023-05-07T10:26:33;5.80;;;1.65;;
80332;SDS011;69652;51.864;-2.246;2023-05-07T10:29:04;5.40;;;2.05;;
80332;SDS011;69652;51.864;-2.246;2023-05-07T10:34:37;4.13;;;1.50;;
80332;SDS011;69652;51.864;-2.246;2023-05-07T10:37:05;5.57;;;2.00;;
80332;SDS011;69652;51.864;-2.246;2023-05-07T10:39:32;6.05;;;2.08;;
80332;SDS011;69652;51.864;-2.246;2023-05-07T10:42:07;9.02;;;2.40;;
80332;SDS011;69652;51.864;-2.246;2023-05-07T10:44:33;6.88;;;1.92;;
80332;SDS011;69652;51.864;-2.246;2023-05-07T10:47:04;5.10;;;2.10;;
80332;SDS011;69652;51.864;-2.246;2023-05-07T10:49:30;7.20;;;2.88;;
80332;SDS011;69652;51.864;-2.246;2023-05-07T10:52:12;9.73;;;2.53;;
80332;SDS011;69652;51.864;-2.246;2023-05-07T10:55:18;8.90;;;2.83;;
80332;SDS011;69652;51.864;-2.246;2023-05-07T10:57:40;6.95;;;2.63;;
80332;SDS011;69652;51.864;-2.246;2023-05-07T11:05:24;6.47;;;2.17;;
80332;SDS011;69652;51.864;-2.246;2023-05-07T11:07:53;7.65;;;2.03;;
80332;SDS011;69652;51.864;-2.246;2023-05-07T11:10:20;5.57;;;2.08;;
80332;SDS011;69652;51.864;-2.246;2023-05-07T11:12:48;7.90;;;3.08;;
80332;SDS011;69652;51.864;-2.246;2023-05-07T11:15:39;6.32;;;1.77;;
80332;SDS011;69652;51.864;-2.246;2023-05-07T11:18:08;6.18;;;1.85;;
80332;SDS011;69652;51.864;-2.246;2023-05-07T11:20:44;4.90;;;2.00;;
80332;SDS011;69652;51.864;-2.246;2023-05-07T11:23:55;5.32;;;1.50;;
80332;SDS011;69652;51.864;-2.246;2023-05-07T11:26:08;4.00;;;1.27;;
80332;SDS011;69652;51.864;-2.246;2023-05-07T11:28:41;4.22;;;1.48;;
80332;SDS011;69652;51.864;-2.246;2023-05-07T11:31:07;5.88;;;1.42;;
80332;SDS011;69652;51.864;-2.246;2023-05-07T11:33:34;4.60;;;1.60;;
80332;SDS011;69652;51.864;-2.246;2023-05-07T11:36:02;4.97;;;1.52;;
80332;SDS011;69652;51.864;-2.246;2023-05-07T11:38:29;4.07;;;1.40;;
80332;SDS011;69652;51.864;-2.246;2023-05-07T11:40:58;6.53;;;1.45;;
80332;SDS011;69652;51.864;-2.246;2023-05-07T11:43:26;8.00;;;2.30;;
80332;SDS011;69652;51.864;-2.246;2023-05-07T11:45:51;4.93;;;1.90;;
80332;SDS011;69652;51.864;-2.246;2023-05-07T11:48:17;8.43;;;3.65;;
80332;SDS011;69652;51.864;-2.246;2023-05-07T11:50:50;6.85;;;1.92;;
80332;SDS011;69652;51.864;-2.246;2023-05-07T11:53:25;8.10;;;3.50;;
80332;SDS011;69652;51.864;-2.246;2023-05-07T11:55:57;5.47;;;1.88;;
80332;SDS011;69652;51.864;-2.246;2023-05-07T11:58:23;4.20;;;1.40;;
80332;SDS011;69652;51.864;-2.246;2023-05-07T12:00:51;3.90;;;1.60;;
80332;SDS011;69652;51.864;-2.246;2023-05-07T12:03:17;5.75;;;2.00;;
80332;SDS011;69652;51.864;-2.246;2023-05-07T12:05:46;14.40;;;8.88;;
80332;SDS011;69652;51.864;-2.246;2023-05-07T12:08:15;7.07;;;2.75;;
80332;SDS011;69652;51.864;-2.246;2023-05-07T12:10:45;7.47;;;2.55;;
80332;SDS011;69652;51.864;-2.246;2023-05-07T12:15:41;8.18;;;1.83;;
80332;SDS011;69652;51.864;-2.246;2023-05-07T12:18:07;4.43;;;1.40;;
80332;SDS011;69652;51.864;-2.246;2023-05-07T12:20:34;6.57;;;2.03;;
80332;SDS011;69652;51.864;-2.246;2023-05-07T12:23:00;5.28;;;1.80;;
80332;SDS011;69652;51.864;-2.246;2023-05-07T12:25:26;6.13;;;1.80;;
80332;SDS011;69652;51.864;-2.246;2023-05-07T12:27:56;5.22;;;1.55;;
80332;SDS011;69652;51.864;-2.246;2023-05-07T12:30:23;5.75;;;1.38;;
80332;SDS011;69652;51.864;-2.246;2023-05-07T12:32:52;3.72;;;1.50;;
80332;SDS011;69652;51.864;-2.246;2023-05-07T12:35:26;4.95;;;1.40;;
80332;SDS011;69652;51.864;-2.246;2023-05-07T12:37:58;6.82;;;1.42;;
80332;SDS011;69652;51.864;-2.246;2023-05-07T12:40:39;3.83;;;1.10;;
80332;SDS011;69652;51.864;-2.246;2023-05-07T12:43:06;6.60;;;2.08;;
80332;SDS011;69652;51.864;-2.246;2023-05-07T12:45:38;3.72;;;1.08;;
80332;SDS011;69652;51.864;-2.246;2023-05-07T12:48:06;7.22;;;2.00;;
80332;SDS011;69652;51.864;-2.246;2023-05-07T12:50:32;5.85;;;1.77;;
80332;SDS011;69652;51.864;-2.246;2023-05-07T12:52:58;3.20;;;1.00;;
80332;SDS011;69652;51.864;-2.246;2023-05-07T12:55:24;3.92;;;1.30;;
80332;SDS011;69652;51.864;-2.246;2023-05-07T12:57:50;7.18;;;1.73;;
80332;SDS011;69652;51.864;-2.246;2023-05-07T13:00:16;4.32;;;1.38;;
80332;SDS011;69652;51.864;-2.246;2023-05-07T13:02:43;5.38;;;1.30;;
80332;SDS011;69652;51.864;-2.246;2023-05-07T13:05:11;8.80;;;3.53;;
80332;SDS011;69652;51.864;-2.246;2023-05-07T13:07:37;6.13;;;1.98;;
80332;SDS011;69652;51.864;-2.246;2023-05-07T13:10:03;5.70;;;1.98;;
80332;SDS011;69652;51.864;-2.246;2023-05-07T13:12:29;4.22;;;1.15;;
80332;SDS011;69652;51.864;-2.246;2023-05-07T13:14:54;7.70;;;1.77;;
80332;SDS011;69652;51.864;-2.246;2023-05-07T13:17:20;6.72;;;2.67;;
80332;SDS011;69652;51.864;-2.246;2023-05-07T13:19:46;8.00;;;2.63;;
80332;SDS011;69652;51.864;-2.246;2023-05-07T13:22:11;6.38;;;2.30;;
80332;SDS011;69652;51.864;-2.246;2023-05-07T13:24:36;19.17;;;10.95;;
80332;SDS011;69652;51.864;-2.246;2023-05-07T13:27:02;7.38;;;1.15;;
80332;SDS011;69652;51.864;-2.246;2023-05-07T13:29:28;4.05;;;1.38;;
80332;SDS011;69652;51.864;-2.246;2023-05-07T13:31:58;4.85;;;1.60;;
80332;SDS011;69652;51.864;-2.246;2023-05-07T13:34:24;6.28;;;1.50;;
80332;SDS011;69652;51.864;-2.246;2023-05-07T13:36:50;4.43;;;1.35;;
80332;SDS011;69652;51.864;-2.246;2023-05-07T13:39:16;6.50;;;1.58;;
80332;SDS011;69652;51.864;-2.246;2023-05-07T13:41:41;4.85;;;1.98;;
80332;SDS011;69652;51.864;-2.246;2023-05-07T13:44:07;4.53;;;1.17;;
80332;SDS011;69652;51.864;-2.246;2023-05-07T13:46:32;4.38;;;1.52;;
80332;SDS011;69652;51.864;-2.246;2023-05-07T13:48:58;5.18;;;1.88;;
80332;SDS011;69652;51.864;-2.246;2023-05-07T13:51:23;5.88;;;1.30;;
80332;SDS011;69652;51.864;-2.246;2023-05-07T13:53:49;6.82;;;1.45;;
80332;SDS011;69652;51.864;-2.246;2023-05-07T13:56:15;7.18;;;3.65;;
80332;SDS011;69652;51.864;-2.246;2023-05-07T13:58:41;5.15;;;1.60;;
80332;SDS011;69652;51.864;-2.246;2023-05-07T14:01:06;4.20;;;1.30;;
80332;SDS011;69652;51.864;-2.246;2023-05-07T14:03:32;3.58;;;1.00;;
80332;SDS011;69652;51.864;-2.246;2023-05-07T14:05:59;4.15;;;1.33;;
80332;SDS011;69652;51.864;-2.246;2023-05-07T14:08:26;4.10;;;1.70;;
80332;SDS011;69652;51.864;-2.246;2023-05-07T14:10:52;4.68;;;2.17;;
80332;SDS011;69652;51.864;-2.246;2023-05-07T14:13:17;7.18;;;3.78;;
80332;SDS011;69652;51.864;-2.246;2023-05-07T14:15:43;4.88;;;2.03;;
80332;SDS011;69652;51.864;-2.246;2023-05-07T14:18:13;5.07;;;2.10;;
80332;SDS011;69652;51.864;-2.246;2023-05-07T14:20:39;6.63;;;3.20;;
80332;SDS011;69652;51.864;-2.246;2023-05-07T14:23:04;9.05;;;5.00;;
80332;SDS011;69652;51.864;-2.246;2023-05-07T14:25:30;6.57;;;2.92;;
80332;SDS011;69652;51.864;-2.246;2023-05-07T14:27:55;6.82;;;3.00;;
80332;SDS011;69652;51.864;-2.246;2023-05-07T14:30:21;6.88;;;2.70;;
80332;SDS011;69652;51.864;-2.246;2023-05-07T14:32:49;6.47;;;2.42;;